createdAt,value
2018-08-22T00:01:50.383Z,25.97
2018-08-22T00:04:18.824Z,27.93
2018-08-22T00:06:47.274Z,26.57
2018-08-22T00:09:15.728Z,28.17
2018-08-22T00:11:44.222Z,33.13
2018-08-22T00:14:12.764Z,32.03
2018-08-22T00:16:41.222Z,38.67
2018-08-22T00:19:09.798Z,33.73
2018-08-22T00:21:38.953Z,33.87
2018-08-22T00:24:07.536Z,38.63
2018-08-22T00:26:35.997Z,34.97
2018-08-22T00:29:04.691Z,32.20
2018-08-22T00:31:33.106Z,32.50
2018-08-22T00:34:01.534Z,31.80
2018-08-22T00:36:29.966Z,36.23
2018-08-22T00:38:58.393Z,37.13
2018-08-22T00:41:26.851Z,36.37
2018-08-22T00:43:55.513Z,38.10
2018-08-22T00:46:24.095Z,35.03
2018-08-22T00:48:52.671Z,35.63
2018-08-22T00:51:21.115Z,36.03
2018-08-22T00:53:49.571Z,36.43
2018-08-22T00:56:18.012Z,41.27
2018-08-22T00:58:46.564Z,38.60
2018-08-22T01:01:15.180Z,41.27
2018-08-22T01:03:43.624Z,41.17
2018-08-22T01:06:12.068Z,38.67
2018-08-22T01:08:40.522Z,38.83
2018-08-22T01:11:08.960Z,40.20
2018-08-22T01:13:37.396Z,39.10
2018-08-22T01:16:06.164Z,38.07
2018-08-22T01:18:34.640Z,37.73
2018-08-22T01:21:03.069Z,36.70
2018-08-22T01:23:31.571Z,38.80
2018-08-22T01:26:00.125Z,39.90
2018-08-22T01:28:28.697Z,40.27
2018-08-22T01:30:57.274Z,40.53
2018-08-22T01:33:25.794Z,44.63
2018-08-22T01:35:54.233Z,47.13
2018-08-22T01:38:22.667Z,39.97
2018-08-22T01:40:51.118Z,41.87
2018-08-22T01:43:19.556Z,43.17
2018-08-22T01:45:48.013Z,41.83
2018-08-22T01:48:16.452Z,43.80
2018-08-22T01:50:45.150Z,40.63
2018-08-22T01:53:13.585Z,38.67
2018-08-22T01:55:42.043Z,41.87
2018-08-22T01:58:10.575Z,40.13
2018-08-22T02:00:39.189Z,41.10
2018-08-22T02:03:07.708Z,46.80
2018-08-22T02:05:36.439Z,44.03
2018-08-22T02:08:05.015Z,43.77
2018-08-22T02:10:33.557Z,43.13
2018-08-22T02:13:01.993Z,46.33
2018-08-22T02:15:30.511Z,38.87
2018-08-22T02:17:58.952Z,45.50
2018-08-22T02:20:27.411Z,43.67
2018-08-22T02:22:56.121Z,43.00
2018-08-22T02:25:24.671Z,43.60
2018-08-22T02:27:53.113Z,46.53
2018-08-22T02:30:21.805Z,42.70
2018-08-22T02:32:50.321Z,38.03
2018-08-22T02:35:18.757Z,39.70
2018-08-22T02:37:47.217Z,34.20
2018-08-22T02:40:15.670Z,31.97
2018-08-22T02:42:44.121Z,40.20
2018-08-22T02:45:12.579Z,40.83
2018-08-22T02:47:41.029Z,39.27
2018-08-22T02:50:09.585Z,34.50
2018-08-22T02:52:38.055Z,35.53
2018-08-22T02:55:06.605Z,36.23
2018-08-22T02:57:35.049Z,32.37
2018-08-22T03:00:03.593Z,34.37
2018-08-22T03:02:32.120Z,32.63
2018-08-22T03:05:00.607Z,36.07
2018-08-22T03:07:29.115Z,39.77
2018-08-22T03:09:57.606Z,38.47
2018-08-22T03:12:26.063Z,39.83
2018-08-22T03:14:54.631Z,40.40
2018-08-22T03:17:23.082Z,39.17
2018-08-22T03:19:51.590Z,40.40
2018-08-22T03:22:20.037Z,45.03
2018-08-22T03:24:48.466Z,44.20
2018-08-22T03:27:16.898Z,46.57
2018-08-22T03:29:45.343Z,48.77
2018-08-22T03:32:13.761Z,47.63
2018-08-22T03:34:42.286Z,44.77
2018-08-22T03:37:10.771Z,41.43
2018-08-22T03:39:39.433Z,46.80
2018-08-22T03:42:07.887Z,45.87
2018-08-22T03:44:36.366Z,48.80
2018-08-22T03:47:04.813Z,45.67
2018-08-22T03:49:33.262Z,49.53
2018-08-22T03:52:01.731Z,48.23
2018-08-22T03:54:30.169Z,45.80
2018-08-22T03:56:58.633Z,47.17
2018-08-22T03:59:27.075Z,48.40
2018-08-22T04:01:55.496Z,48.07
2018-08-22T04:04:23.959Z,46.20
2018-08-22T04:06:52.428Z,49.63
2018-08-22T04:09:20.851Z,47.13
2018-08-22T04:11:49.409Z,46.53
2018-08-22T04:14:17.855Z,45.93
2018-08-22T04:16:46.299Z,44.70
2018-08-22T04:19:14.867Z,48.23
2018-08-22T04:21:43.466Z,48.47
2018-08-22T04:24:11.889Z,46.33
2018-08-22T04:26:40.428Z,45.33
2018-08-22T04:29:08.900Z,46.80
2018-08-22T04:31:37.390Z,49.00
2018-08-22T04:34:05.882Z,43.93
2018-08-22T04:36:34.454Z,48.93
2018-08-22T04:39:02.985Z,50.33
2018-08-22T04:41:31.460Z,40.70
2018-08-22T04:44:00.020Z,36.37
2018-08-22T04:46:28.468Z,42.53
2018-08-22T04:48:56.934Z,41.73
2018-08-22T04:51:25.420Z,41.43
2018-08-22T04:53:53.909Z,43.67
2018-08-22T04:56:22.358Z,40.07
2018-08-22T04:58:50.898Z,40.47
2018-08-22T05:01:19.449Z,41.03
2018-08-22T05:03:47.954Z,39.00
2018-08-22T05:06:16.468Z,35.73
2018-08-22T05:08:45.157Z,38.67
2018-08-22T05:11:13.658Z,34.90
2018-08-22T05:13:42.092Z,36.63
2018-08-22T05:16:10.547Z,38.77
2018-08-22T05:18:38.977Z,36.53
2018-08-22T05:21:07.441Z,35.93
2018-08-22T05:23:35.906Z,36.97
2018-08-22T05:26:04.340Z,34.97
2018-08-22T05:28:32.880Z,35.33
2018-08-22T05:31:01.386Z,37.30
2018-08-22T05:33:29.882Z,35.10
2018-08-22T05:35:58.390Z,35.33
2018-08-22T05:38:26.838Z,35.93
2018-08-22T05:40:55.316Z,36.30
2018-08-22T05:43:23.760Z,37.67
2018-08-22T05:45:52.238Z,34.03
2018-08-22T05:48:20.716Z,32.00
2018-08-22T05:50:49.212Z,32.83
2018-08-22T05:53:17.685Z,34.90
2018-08-22T05:55:46.168Z,31.83
2018-08-22T05:58:14.606Z,32.53
2018-08-22T06:00:43.100Z,30.17
2018-08-22T06:03:16.897Z,31.23
2018-08-22T06:05:45.867Z,29.80
2018-08-22T06:08:15.684Z,30.07
2018-08-22T06:10:44.148Z,24.80
2018-08-22T06:13:12.633Z,27.83
2018-08-22T06:15:41.170Z,27.07
2018-08-22T06:18:09.613Z,26.47
2018-08-22T06:20:38.046Z,27.20
2018-08-22T06:23:06.789Z,30.63
2018-08-22T06:25:35.299Z,27.10
2018-08-22T06:28:03.868Z,27.03
2018-08-22T06:30:32.478Z,30.50
2018-08-22T06:33:01.798Z,30.07
2018-08-22T06:35:30.309Z,30.57
2018-08-22T06:37:58.771Z,27.07
2018-08-22T06:40:27.330Z,31.57
2018-08-22T06:42:55.802Z,28.63
2018-08-22T06:45:24.368Z,26.03
2018-08-22T06:47:52.858Z,27.83
2018-08-22T06:50:21.371Z,27.30
2018-08-22T06:52:50.077Z,24.37
2018-08-22T06:55:18.534Z,29.57
2018-08-22T06:57:46.988Z,30.47
2018-08-22T07:00:20.404Z,30.73
2018-08-22T07:02:48.854Z,26.17
2018-08-22T07:05:17.299Z,23.83
2018-08-22T07:07:45.734Z,24.70
2018-08-22T07:10:14.165Z,24.60
2018-08-22T07:12:42.931Z,24.13
2018-08-22T07:15:11.414Z,21.87
2018-08-22T07:17:39.879Z,21.23
2018-08-22T07:20:08.618Z,26.63
2018-08-22T07:22:37.119Z,27.83
2018-08-22T07:25:05.695Z,24.43
2018-08-22T07:27:34.213Z,26.73
2018-08-22T07:30:02.973Z,24.77
2018-08-22T07:32:31.524Z,22.80
2018-08-22T07:34:59.977Z,21.83
2018-08-22T07:37:28.442Z,21.80
2018-08-22T07:39:56.973Z,23.63
2018-08-22T07:42:25.425Z,21.30
2018-08-22T07:44:53.881Z,24.73
2018-08-22T07:47:22.348Z,22.37
2018-08-22T07:49:50.812Z,19.53
2018-08-22T07:52:19.342Z,19.53
2018-08-22T07:54:48.099Z,21.20
2018-08-22T07:57:18.162Z,21.63
2018-08-22T07:59:46.731Z,19.80
2018-08-22T08:02:15.283Z,21.50
2018-08-22T08:04:43.828Z,19.50
2018-08-22T08:07:12.305Z,20.63
2018-08-22T08:09:40.805Z,21.50
2018-08-22T08:12:09.409Z,19.83
2018-08-22T08:14:37.954Z,20.50
2018-08-22T08:17:06.528Z,24.67
2018-08-22T08:19:34.953Z,20.70
2018-08-22T08:22:03.534Z,20.70
2018-08-22T08:24:32.133Z,20.73
2018-08-22T08:27:00.855Z,19.03
2018-08-22T08:29:29.304Z,20.53
2018-08-22T08:31:57.778Z,21.67
2018-08-22T08:34:26.262Z,21.70
2018-08-22T08:36:54.767Z,20.27
2018-08-22T08:39:23.228Z,18.77
2018-08-22T08:41:51.786Z,19.53
2018-08-22T08:44:20.322Z,21.07
2018-08-22T08:46:48.960Z,20.70
2018-08-22T08:49:17.418Z,21.23
2018-08-22T08:51:57.349Z,25.60
2018-08-22T08:54:26.424Z,24.70
2018-08-22T08:56:54.899Z,23.63
2018-08-22T08:59:23.394Z,26.87
2018-08-22T09:01:51.836Z,23.83
2018-08-22T09:04:21.592Z,20.47
2018-08-22T09:06:50.473Z,22.83
2018-08-22T09:09:18.928Z,28.07
2018-08-22T09:11:54.702Z,26.83
2018-08-22T09:14:23.164Z,30.03
2018-08-22T09:16:51.711Z,29.37
2018-08-22T09:19:20.192Z,30.17
2018-08-22T09:21:49.128Z,27.77
2018-08-22T09:24:17.581Z,29.87
2018-08-22T09:26:46.086Z,28.20
2018-08-22T09:29:14.674Z,27.53
2018-08-22T09:31:43.216Z,27.43
2018-08-22T09:34:11.721Z,28.23
2018-08-22T09:36:40.322Z,29.57
2018-08-22T09:39:11.270Z,23.53
2018-08-22T09:41:39.736Z,28.37
2018-08-22T09:44:08.515Z,20.53
2018-08-22T09:46:37.938Z,21.03
2018-08-22T09:49:06.501Z,19.73
2018-08-22T09:51:35.086Z,16.03
2018-08-22T09:54:03.563Z,21.30
2018-08-22T09:56:32.181Z,21.33
2018-08-22T09:59:00.738Z,19.03
2018-08-22T10:01:34.550Z,11.90
2018-08-22T10:04:03.269Z,14.73
2018-08-22T10:06:38.850Z,15.27
2018-08-22T10:09:11.501Z,14.70
2018-08-22T10:11:39.982Z,14.10
2018-08-22T10:14:08.528Z,12.33
2018-08-22T10:16:37.092Z,14.07
2018-08-22T10:19:05.763Z,11.53
2018-08-22T10:21:34.162Z,13.40
2018-08-22T10:24:02.627Z,13.00
2018-08-22T10:26:31.114Z,13.70
2018-08-22T10:28:59.558Z,10.20
2018-08-22T10:31:28.121Z,13.40
2018-08-22T10:33:56.860Z,14.53
2018-08-22T10:36:25.624Z,14.40
2018-08-22T10:38:54.400Z,16.07
2018-08-22T10:41:22.872Z,11.17
2018-08-22T10:43:51.431Z,12.20
2018-08-22T10:46:19.905Z,10.13
2018-08-22T10:48:48.375Z,9.90
2018-08-22T10:51:16.884Z,11.43
2018-08-22T10:53:45.323Z,10.27
2018-08-22T10:56:13.890Z,11.33
2018-08-22T10:58:42.554Z,11.47
2018-08-22T11:01:11.070Z,10.37
2018-08-22T11:03:39.532Z,9.20
2018-08-22T11:06:08.053Z,8.47
2018-08-22T11:08:36.495Z,9.17
2018-08-22T11:11:05.056Z,9.60
2018-08-22T11:13:33.489Z,8.33
2018-08-22T11:16:02.148Z,7.47
2018-08-22T11:18:30.606Z,8.50
2018-08-22T11:21:11.679Z,9.77
2018-08-22T11:23:51.775Z,8.43
2018-08-22T11:26:31.597Z,7.80
2018-08-22T11:29:11.379Z,7.03
2018-08-22T11:31:51.138Z,7.33
2018-08-22T11:34:30.866Z,8.53
2018-08-22T11:37:03.963Z,7.53
2018-08-22T11:39:32.556Z,9.97
2018-08-22T11:42:01.403Z,11.17
2018-08-22T11:44:30.412Z,8.93
2018-08-22T11:46:59.433Z,10.10
2018-08-22T11:49:28.302Z,9.07
2018-08-22T11:51:57.305Z,9.23
2018-08-22T11:54:25.793Z,11.70
2018-08-22T11:56:54.252Z,11.03
2018-08-22T11:59:22.795Z,8.73
2018-08-22T12:01:51.907Z,10.20
2018-08-22T12:04:20.843Z,11.77
2018-08-22T12:06:49.812Z,9.97
2018-08-22T12:09:18.446Z,8.63
2018-08-22T12:11:46.905Z,9.20
2018-08-22T12:14:15.489Z,11.73
2018-08-22T12:16:44.018Z,9.80
2018-08-22T12:19:12.552Z,10.67
2018-08-22T12:21:41.842Z,11.00
2018-08-22T12:24:10.295Z,12.10
2018-08-22T12:26:38.734Z,10.20
2018-08-22T12:29:07.183Z,9.37
2018-08-22T12:31:35.725Z,8.93
2018-08-22T12:34:04.211Z,9.77
2018-08-22T12:36:32.661Z,10.70
2018-08-22T12:39:01.187Z,10.57
2018-08-22T12:41:29.659Z,9.07
2018-08-22T12:43:58.122Z,10.77
2018-08-22T12:46:26.711Z,9.67
2018-08-22T12:48:55.334Z,11.07
2018-08-22T12:51:23.767Z,12.10
2018-08-22T12:53:52.336Z,9.37
2018-08-22T12:56:20.862Z,13.07
2018-08-22T12:58:49.298Z,9.50
2018-08-22T13:01:17.946Z,10.83
2018-08-22T13:03:46.632Z,9.73
2018-08-22T13:06:15.145Z,10.37
2018-08-22T13:08:43.613Z,12.17
2018-08-22T13:11:12.090Z,10.90
2018-08-22T13:13:40.510Z,10.40
2018-08-22T13:16:08.987Z,10.10
2018-08-22T13:18:37.497Z,10.23
2018-08-22T13:21:05.961Z,11.97
2018-08-22T13:23:34.603Z,11.27
2018-08-22T13:26:03.126Z,10.40
2018-08-22T13:28:31.978Z,12.70
2018-08-22T13:31:00.462Z,13.47
2018-08-22T13:33:28.979Z,12.03
2018-08-22T13:35:57.443Z,11.23
2018-08-22T13:38:25.916Z,11.87
2018-08-22T13:40:54.489Z,12.43
2018-08-22T13:43:22.981Z,11.53
2018-08-22T13:45:51.472Z,9.90
2018-08-22T13:48:19.906Z,11.57
2018-08-22T13:50:48.418Z,15.53
2018-08-22T13:53:16.877Z,9.40
2018-08-22T13:55:45.504Z,10.13
2018-08-22T13:58:13.957Z,10.80
2018-08-22T14:00:42.433Z,9.80
2018-08-22T14:03:11.000Z,12.50
2018-08-22T14:05:39.521Z,8.60
2018-08-22T14:08:07.995Z,12.17
2018-08-22T14:10:36.499Z,11.73
2018-08-22T14:13:05.043Z,10.40
2018-08-22T14:15:33.540Z,9.47
2018-08-22T14:18:02.122Z,11.30
2018-08-22T14:20:31.010Z,9.80
2018-08-22T14:22:59.484Z,9.23
2018-08-22T14:25:27.968Z,8.67
2018-08-22T14:27:56.533Z,9.73
2018-08-22T14:30:24.998Z,11.47
2018-08-22T14:32:53.607Z,9.40
2018-08-22T14:35:22.043Z,9.10
2018-08-22T14:37:50.590Z,10.33
2018-08-22T14:40:19.207Z,10.30
2018-08-22T14:42:47.766Z,10.03
2018-08-22T14:45:16.342Z,10.60
2018-08-22T14:47:44.831Z,9.50
2018-08-22T14:50:13.345Z,10.77
2018-08-22T14:52:41.929Z,9.73
2018-08-22T14:55:10.415Z,9.60
2018-08-22T14:57:38.871Z,9.47
2018-08-22T15:00:08.124Z,9.53
2018-08-22T15:02:36.664Z,9.70
2018-08-22T15:05:05.356Z,10.30
2018-08-22T15:07:33.846Z,10.20
2018-08-22T15:10:02.380Z,9.03
2018-08-22T15:12:31.242Z,9.60
2018-08-22T15:15:00.009Z,9.50
2018-08-22T15:17:28.503Z,10.33
2018-08-22T15:19:56.972Z,10.37
2018-08-22T15:22:25.757Z,7.97
2018-08-22T15:24:54.495Z,8.47
2018-08-22T15:27:22.941Z,10.67
2018-08-22T15:29:51.544Z,11.00
2018-08-22T15:32:20.000Z,12.03
2018-08-22T15:34:51.440Z,9.87
2018-08-22T15:37:20.421Z,9.10
2018-08-22T15:39:49.180Z,8.63
2018-08-22T15:42:17.793Z,8.50
2018-08-22T15:44:46.350Z,10.60
2018-08-22T15:47:14.950Z,9.57
2018-08-22T15:49:44.491Z,10.00
2018-08-22T15:52:12.948Z,9.27
2018-08-22T15:54:41.421Z,8.43
2018-08-22T15:57:09.911Z,11.77
2018-08-22T15:59:38.391Z,8.37
2018-08-22T16:02:06.899Z,10.83
2018-08-22T16:04:50.920Z,9.17
2018-08-22T16:07:19.443Z,11.07
2018-08-22T16:09:47.886Z,11.07
2018-08-22T16:12:16.368Z,10.83
2018-08-22T16:14:44.915Z,10.90
2018-08-22T16:17:13.634Z,11.50
2018-08-22T16:19:42.259Z,12.83
2018-08-22T16:22:10.713Z,10.10
2018-08-22T16:24:41.402Z,10.33
2018-08-22T16:27:09.942Z,10.37
2018-08-22T16:29:38.382Z,10.30
2018-08-22T16:32:06.943Z,11.20
2018-08-22T16:34:35.518Z,8.30
2018-08-22T16:37:04.062Z,8.80
2018-08-22T16:39:40.766Z,9.53
2018-08-22T16:42:09.937Z,9.00
2018-08-22T16:44:38.743Z,9.10
2018-08-22T16:47:07.420Z,9.20
2018-08-22T16:49:35.984Z,9.20
2018-08-22T16:52:04.552Z,10.80
2018-08-22T16:54:33.063Z,9.87
2018-08-22T16:57:01.630Z,9.87
2018-08-22T16:59:30.360Z,8.43
2018-08-22T17:01:58.886Z,8.50
2018-08-22T17:04:27.303Z,10.43
2018-08-22T17:06:58.046Z,8.23
2018-08-22T17:09:27.844Z,9.53
2018-08-22T17:11:56.402Z,11.17
2018-08-22T17:14:24.983Z,11.40
2018-08-22T17:16:53.485Z,9.40
2018-08-22T17:19:22.055Z,8.23
2018-08-22T17:21:50.605Z,8.40
2018-08-22T17:24:19.078Z,10.20
2018-08-22T17:26:47.538Z,7.33
2018-08-22T17:29:17.404Z,8.03
2018-08-22T17:31:50.065Z,7.63
2018-08-22T17:34:18.538Z,7.90
2018-08-22T17:36:57.053Z,9.17
2018-08-22T17:39:27.175Z,8.60
2018-08-22T17:41:55.663Z,8.40
2018-08-22T17:44:24.111Z,7.73
2018-08-22T17:46:52.687Z,8.00
2018-08-22T17:49:21.136Z,7.83
2018-08-22T17:52:01.763Z,10.73
2018-08-22T17:54:30.239Z,7.87
2018-08-22T17:57:11.221Z,7.27
2018-08-22T17:59:40.617Z,7.37
2018-08-22T18:02:09.237Z,7.47
2018-08-22T18:04:49.059Z,7.23
2018-08-22T18:07:18.145Z,8.23
2018-08-22T18:09:47.858Z,7.27
2018-08-22T18:12:16.846Z,7.10
2018-08-22T18:14:45.315Z,6.97
2018-08-22T18:17:15.152Z,8.53
2018-08-22T18:19:43.633Z,6.77
2018-08-22T18:22:12.135Z,7.60
2018-08-22T18:24:45.892Z,8.37
2018-08-22T18:27:16.685Z,6.87
2018-08-22T18:29:46.383Z,8.13
2018-08-22T18:32:15.647Z,6.80
2018-08-22T18:34:57.740Z,7.57
2018-08-22T18:37:27.677Z,8.57
2018-08-22T18:40:23.930Z,6.07
2018-08-22T18:42:53.678Z,7.50
2018-08-22T18:45:22.818Z,7.40
2018-08-22T18:47:51.420Z,6.80
2018-08-22T18:50:20.133Z,7.63
2018-08-22T18:52:52.791Z,11.27
2018-08-22T18:55:22.561Z,7.90
2018-08-22T18:57:51.407Z,10.67
2018-08-22T19:00:19.906Z,6.23
2018-08-22T19:02:50.911Z,6.50
2018-08-22T19:05:27.238Z,5.80
2018-08-22T19:08:06.885Z,7.90
2018-08-22T19:10:36.547Z,6.70
2018-08-22T19:13:20.722Z,6.27
2018-08-22T19:15:52.544Z,6.80
2018-08-22T19:18:21.317Z,5.97
2018-08-22T19:20:50.259Z,6.10
2018-08-22T19:23:18.709Z,6.93
2018-08-22T19:25:48.835Z,6.10
2018-08-22T19:28:17.287Z,5.87
2018-08-22T19:30:45.792Z,6.27
2018-08-22T19:33:15.693Z,6.57
2018-08-22T19:35:44.841Z,5.40
2018-08-22T19:38:15.807Z,7.17
2018-08-22T19:40:44.285Z,5.97
2018-08-22T19:43:13.311Z,5.50
2018-08-22T19:45:41.900Z,6.20
2018-08-22T19:48:10.479Z,6.10
2018-08-22T19:50:38.978Z,6.00
2018-08-22T19:53:07.456Z,5.90
2018-08-22T19:55:36.843Z,6.53
2018-08-22T19:58:05.739Z,6.23
2018-08-22T20:00:34.301Z,6.10
2018-08-22T20:03:02.766Z,6.13
2018-08-22T20:05:52.625Z,6.30
2018-08-22T20:08:29.427Z,7.53
2018-08-22T20:10:58.776Z,6.77
2018-08-22T20:13:38.702Z,7.10
2018-08-22T20:16:07.320Z,6.27
2018-08-22T20:18:35.872Z,6.27
2018-08-22T20:21:04.511Z,6.03
2018-08-22T20:23:33.028Z,6.30
2018-08-22T20:26:01.950Z,5.93
2018-08-22T20:28:30.611Z,8.33
2018-08-22T20:31:03.428Z,5.67
2018-08-22T20:33:31.988Z,5.83
2018-08-22T20:36:00.590Z,6.07
2018-08-22T20:38:29.101Z,5.83
2018-08-22T20:41:01.763Z,6.03
2018-08-22T20:43:30.627Z,10.73
2018-08-22T20:45:59.087Z,6.90
2018-08-22T20:48:27.555Z,5.90
2018-08-22T20:50:56.028Z,6.60
2018-08-22T20:53:24.466Z,6.50
2018-08-22T20:55:52.915Z,6.20
2018-08-22T20:58:35.936Z,8.10
2018-08-22T21:01:07.387Z,7.60
2018-08-22T21:03:35.897Z,7.27
2018-08-22T21:06:08.493Z,7.00
2018-08-22T21:08:37.064Z,7.07
2018-08-22T21:11:05.865Z,7.00
2018-08-22T21:13:34.302Z,7.20
2018-08-22T21:16:02.842Z,7.33
2018-08-22T21:18:31.362Z,6.83
2018-08-22T21:20:59.929Z,7.23
2018-08-22T21:23:28.382Z,8.23
2018-08-22T21:25:56.839Z,7.63
2018-08-22T21:28:34.366Z,7.40
2018-08-22T21:31:04.215Z,7.67
2018-08-22T21:33:32.758Z,7.50
2018-08-22T21:36:01.293Z,8.13
2018-08-22T21:38:29.729Z,7.77
2018-08-22T21:40:58.262Z,7.10
2018-08-22T21:43:27.183Z,8.73
2018-08-22T21:45:55.689Z,7.70
2018-08-22T21:48:25.170Z,7.77
2018-08-22T21:50:53.633Z,7.63
2018-08-22T21:53:22.204Z,8.53
2018-08-22T21:55:51.849Z,7.57
2018-08-22T21:58:20.424Z,7.60
2018-08-22T22:00:49.037Z,6.43
2018-08-22T22:03:22.988Z,7.43
2018-08-22T22:05:57.102Z,6.97
2018-08-22T22:08:25.849Z,7.23
2018-08-22T22:11:02.809Z,7.23
2018-08-22T22:13:31.447Z,8.53
2018-08-22T22:16:01.416Z,7.50
2018-08-22T22:18:31.393Z,7.43
2018-08-22T22:21:10.467Z,6.67
2018-08-22T22:23:44.593Z,6.73
2018-08-22T22:26:13.974Z,6.90
2018-08-22T22:28:42.553Z,7.20
2018-08-22T22:31:15.472Z,7.63
2018-08-22T22:34:15.698Z,7.23
2018-08-22T22:36:44.234Z,7.67
2018-08-22T22:39:29.640Z,7.60
2018-08-22T22:41:58.089Z,7.23
2018-08-22T22:44:26.515Z,7.50
2018-08-22T22:46:54.989Z,8.43
2018-08-22T22:49:23.424Z,7.37
2018-08-22T22:51:51.899Z,8.40
2018-08-22T22:54:30.390Z,8.23
2018-08-22T22:56:58.946Z,9.20
2018-08-22T22:59:27.464Z,7.77
2018-08-22T23:01:56.000Z,8.53
2018-08-22T23:04:26.560Z,8.70
2018-08-22T23:07:35.486Z,9.97
2018-08-22T23:10:05.285Z,8.87
2018-08-22T23:12:48.095Z,8.80
2018-08-22T23:15:21.698Z,8.90
2018-08-22T23:17:51.738Z,8.80
2018-08-22T23:20:28.709Z,9.87
2018-08-22T23:22:57.415Z,10.00
2018-08-22T23:25:26.376Z,9.03
2018-08-22T23:27:55.069Z,10.47
2018-08-22T23:30:28.843Z,9.67
2018-08-22T23:32:57.450Z,8.93
2018-08-22T23:35:29.870Z,11.03
2018-08-22T23:38:00.473Z,9.93
2018-08-22T23:40:30.303Z,10.23
2018-08-22T23:42:58.808Z,14.03
2018-08-22T23:45:27.285Z,11.13
2018-08-22T23:47:55.767Z,11.50
2018-08-22T23:50:28.178Z,10.77
2018-08-22T23:52:56.893Z,11.93
2018-08-22T23:55:26.105Z,11.93
2018-08-22T23:57:55.911Z,12.20
